Terminal Aerodrome Forecast
Issued by NWS

Home | Current Version | Previous Version | Graphics & Text | Print | Product List | Glossary On
Versions: 1 2 3 4 5 6 7 8 9 10 11 12 13 14
000
FTUS43 KUNR 262151 AAA
TAFGCC
TAF AMD
KGCC 262151Z 2622/2718 34011KT P6SM BKN100
      TEMPO 2622/2701 -TSRA BKN080CB
     FM270100 33011KT P6SM -SHRA SCT050 BKN080=

USA.gov is the U.S. government's official web portal to all federal, state and local government web resources and services.